Time;durP1;ratioP1;P1;durP2;ratioP2;P2;SDS_P1;SDS_P2;PMS_P1;PMS_P2;Temp;Humidity;BMP_temperature;BMP_pressure;BME280_temperature;BME280_humidity;BME280_pressure;Samples;Min_cycle;Max_cycle;Signal;HPM_P1;HPM_P2
2022/09/14 00:00:05;;;;;;;;;;;;;;;;;;1044377;28;19935;-73
2022/09/14 00:00:36;;;;;;;;;;;;;;;;;;1044124;28;19917;-73
2022/09/14 00:01:06;;;;;;;;;;;;;;;;;;1048043;28;19966;-73
2022/09/14 00:01:37;;;;;;;;;;;;;;;;;;1048156;28;20342;-73
2022/09/14 00:02:08;;;;;;;;;;;;;;;;;;1047019;28;19912;-73
2022/09/14 00:02:38;;;;;;;;;;;;;;;;;;1047844;28;19909;-73
2022/09/14 00:03:09;;;;;;;;;;;;;;;;;;1044342;28;19936;-73
2022/09/14 00:03:39;;;;;;;;;;;;;;;;;;1044380;28;19936;-73
2022/09/14 00:04:10;;;;;;;;;;;;;;;;;;1044405;28;20019;-73
2022/09/14 00:04:40;;;;;;;;;;;;;;;;;;1044353;28;19967;-73
2022/09/14 00:05:11;;;;;;;;;;;;;;;;;;1044333;28;19916;-73
2022/09/14 00:05:41;;;;;;;;;;;;;;;;;;1048100;28;19959;-73
2022/09/14 00:06:11;;;;;;;;;;;;;;;;;;1048131;28;19913;-73
2022/09/14 00:06:42;;;;;;;;;;;;;;;;;;1047984;28;19963;-72
2022/09/14 00:07:12;;;;;;;;;;;;;;;;;;1047919;28;19916;-72
2022/09/14 00:07:42;;;;;;;;;;;;;;;;;;1044061;28;19967;-73
2022/09/14 00:08:12;;;;;;;;;;;;;;;;;;1039743;28;19948;-73
2022/09/14 00:08:43;;;;;;;;;;;;;;;;;;1044012;28;19920;-73
2022/09/14 00:09:13;;;;;;;;;;;;;;;;;;1043947;28;19913;-73
2022/09/14 00:09:44;;;;;;;;;;;;;;;;;;1044093;28;19913;-73
2022/09/14 00:10:14;;;;;;;;;;;;;;;;;;1044185;28;19920;-73
2022/09/14 00:10:44;;;;;;;;;;;;;;;;;;1044300;28;20399;-73
2022/09/14 00:11:15;;;;;;;;;;;;;;;;;;1047967;28;19952;-73
2022/09/14 00:11:45;;;;;;;;;;;;;;;;;;1048252;28;20441;-73
2022/09/14 00:12:15;;;;;;;;;;;;;;;;;;1048024;28;20284;-73
2022/09/14 00:12:46;;;;;;;;;;;;;;;;;;1047960;28;19959;-73
2022/09/14 00:13:16;;;;;;;;;;;;;;;;;;1044292;28;20011;-73
2022/09/14 00:13:46;;;;;;;;;;;;;;;;;;1044410;28;19958;-73
2022/09/14 00:14:17;;;;;;;;;;;;;;;;;;1044197;28;19912;-73
2022/09/14 00:14:47;;;;;;;;;;;;;;;;;;1047785;28;20025;-73
2022/09/14 00:15:17;;;;;;;;;;;;;;;;;;1048061;28;19928;-73
2022/09/14 00:15:48;;;;;;;;;;;;;;;;;;1048037;28;20372;-73
2022/09/14 00:16:18;;;;;;;;;;;;;;;;;;1048121;28;20307;-73
2022/09/14 00:16:49;;;;;;;;;;;;;;;;;;1043826;28;20016;-73
2022/09/14 00:17:20;;;;;;;;;;;;;;;;;;1040033;28;20225;-73
2022/09/14 00:17:50;;;;;;;;;;;;;;;;;;1039464;28;20075;-73
2022/09/14 00:18:20;;;;;;;;;;;;;;;;;;1039520;28;19917;-73
2022/09/14 00:18:50;;;;;;;;;;;;;;;;;;1039865;28;20013;-73
2022/09/14 00:19:21;;;;;;;;;;;;;;;;;;1043975;28;19958;-73
2022/09/14 00:19:52;;;;;;;;;;;;;;;;;;1043802;28;19917;-73
2022/09/14 00:20:22;;;;;;;;;;;;;;;;;;1043350;28;20361;-73
2022/09/14 00:20:53;;;;;;;;;;;;;;;;;;1043980;28;19966;-73
2022/09/14 00:21:23;;;;;;;;;;;;;;;;;;1044012;28;20060;-73
2022/09/14 00:21:53;;;;;;;;;;;;;;;;;;1044243;28;19920;-73
2022/09/14 00:22:24;;;;;;;;;;;;;;;;;;1044189;28;19913;-72
2022/09/14 00:22:54;;;;;;;;;;;;;;;;;;1046943;28;19912;-72
2022/09/14 00:23:25;;;;;;;;;;;;;;;;;;1048074;28;20000;-72
2022/09/14 00:23:55;;;;;;;;;;;;;;;;;;1048057;28;20453;-73
2022/09/14 00:24:25;;;;;;;;;;;;;;;;;;1048149;28;19963;-73
2022/09/14 00:24:56;;;;;;;;;;;;;;;;;;1043919;28;20323;-73
2022/09/14 00:25:26;;;;;;;;;;;;;;;;;;1044014;28;19913;-73
2022/09/14 00:25:56;;;;;;;;;;;;;;;;;;1044314;28;20329;-73
2022/09/14 00:26:26;;;;;;;;;;;;;;;;;;1048018;28;19916;-73
2022/09/14 00:26:57;;;;;;;;;;;;;;;;;;1047938;28;19954;-73
2022/09/14 00:27:27;;;;;;;;;;;;;;;;;;1047588;28;19974;-73
2022/09/14 00:27:57;;;;;;;;;;;;;;;;;;1047231;28;19919;-73
2022/09/14 00:28:27;;;;;;;;;;;;;;;;;;1043989;28;20326;-73
2022/09/14 00:28:58;;;;;;;;;;;;;;;;;;1044209;28;19912;-73
2022/09/14 00:29:28;;;;;;;;;;;;;;;;;;1047750;28;19916;-73
2022/09/14 00:29:59;;;;;;;;;;;;;;;;;;1048114;28;20311;-73
2022/09/14 00:30:29;;;;;;;;;;;;;;;;;;1048085;28;20526;-73
2022/09/14 00:30:59;;;;;;;;;;;;;;;;;;1048065;28;19950;-73
2022/09/14 00:31:30;;;;;;;;;;;;;;;;;;1043947;28;19924;-73
2022/09/14 00:32:00;;;;;;;;;;;;;;;;;;1043935;28;20007;-73
2022/09/14 00:32:30;;;;;;;;;;;;;;;;;;1044219;28;19913;-73
2022/09/14 00:33:00;;;;;;;;;;;;;;;;;;1043623;28;19916;-73
2022/09/14 00:33:31;;;;;;;;;;;;;;;;;;1044273;28;19912;-73
2022/09/14 00:34:02;;;;;;;;;;;;;;;;;;1044314;28;19919;-73
2022/09/14 00:34:33;;;;;;;;;;;;;;;;;;1044231;28;19963;-73
2022/09/14 00:35:03;;;;;;;;;;;;;;;;;;1044400;28;19962;-72
2022/09/14 00:35:34;;;;;;;;;;;;;;;;;;1044279;28;20323;-72
2022/09/14 00:36:04;;;;;;;;;;;;;;;;;;1048057;28;20019;-72
2022/09/14 00:36:34;;;;;;;;;;;;;;;;;;1048045;28;19916;-73
2022/09/14 00:37:04;;;;;;;;;;;;;;;;;;1047914;28;19919;-73
2022/09/14 00:37:35;;;;;;;;;;;;;;;;;;1048001;28;19923;-73
2022/09/14 00:38:06;;;;;;;;;;;;;;;;;;1043648;28;19932;-73
2022/09/14 00:38:37;;;;;;;;;;;;;;;;;;1039752;28;19929;-73
2022/09/14 00:39:07;;;;;;;;;;;;;;;;;;1039932;28;19992;-73
2022/09/14 00:39:37;;;;;;;;;;;;;;;;;;1044240;28;20354;-73
2022/09/14 00:40:09;;;;;;;;;;;;;;;;;;1039784;28;19920;-73
2022/09/14 00:40:40;;;;;;;;;;;;;;;;;;1043924;28;19924;-73
2022/09/14 00:41:10;;;;;;;;;;;;;;;;;;1043920;28;20408;-73
2022/09/14 00:41:40;;;;;;;;;;;;;;;;;;1044048;28;20375;-73
2022/09/14 00:42:10;;;;;;;;;;;;;;;;;;1044091;28;19920;-73
2022/09/14 00:42:41;;;;;;;;;;;;;;;;;;1044177;28;19916;-73
2022/09/14 00:43:11;;;;;;;;;;;;;;;;;;1044176;28;20357;-73
2022/09/14 00:43:41;;;;;;;;;;;;;;;;;;1044386;28;20015;-73
2022/09/14 00:44:12;;;;;;;;;;;;;;;;;;1044158;28;19912;-73
2022/09/14 00:44:42;;;;;;;;;;;;;;;;;;1047280;28;19917;-73
2022/09/14 00:45:13;;;;;;;;;;;;;;;;;;1047551;28;19916;-73
2022/09/14 00:45:43;;;;;;;;;;;;;;;;;;1047952;28;19920;-73
2022/09/14 00:46:13;;;;;;;;;;;;;;;;;;1047801;28;19919;-73
2022/09/14 00:46:43;;;;;;;;;;;;;;;;;;1047147;28;19912;-73
2022/09/14 00:47:14;;;;;;;;;;;;;;;;;;1047609;28;19913;-73
2022/09/14 00:47:44;;;;;;;;;;;;;;;;;;1048086;28;20319;-73
2022/09/14 00:48:14;;;;;;;;;;;;;;;;;;1047931;28;19912;-73
2022/09/14 00:48:45;;;;;;;;;;;;;;;;;;1043808;28;19913;-73
2022/09/14 00:49:15;;;;;;;;;;;;;;;;;;1043810;28;20372;-73
2022/09/14 00:49:45;;;;;;;;;;;;;;;;;;1044525;28;20015;-73
2022/09/14 00:50:16;;;;;;;;;;;;;;;;;;1045229;28;19912;-73
2022/09/14 00:50:46;;;;;;;;;;;;;;;;;;1048683;28;20010;-73
2022/09/14 00:51:16;;;;;;;;;;;;;;;;;;1048542;28;20419;-73
2022/09/14 00:51:47;;;;;;;;;;;;;;;;;;1048632;28;19920;-73
2022/09/14 00:52:17;;;;;;;;;;;;;;;;;;1048632;28;19913;-73
2022/09/14 00:52:47;;;;;;;;;;;;;;;;;;1044554;28;20003;-73
2022/09/14 00:53:17;;;;;;;;;;;;;;;;;;1044568;28;20364;-73
2022/09/14 00:53:48;;;;;;;;;;;;;;;;;;1044600;28;20361;-73
2022/09/14 00:54:18;;;;;;;;;;;;;;;;;;1048782;28;20269;-73
2022/09/14 00:54:48;;;;;;;;;;;;;;;;;;1048693;28;20287;-73
2022/09/14 00:55:19;;;;;;;;;;;;;;;;;;1048658;28;19912;-73
2022/09/14 00:55:52;;;;;;;;;;;;;;;;;;1048656;28;19929;-73
2022/09/14 00:56:23;;;;;;;;;;;;;;;;;;1044098;28;19968;-73
2022/09/14 00:56:53;;;;;;;;;;;;;;;;;;1039745;28;19913;-73
2022/09/14 00:57:23;;;;;;;;;;;;;;;;;;1039786;28;19936;-73
2022/09/14 00:57:54;;;;;;;;;;;;;;;;;;1040528;28;20289;-73
2022/09/14 00:58:24;;;;;;;;;;;;;;;;;;1040402;28;19917;-73
2022/09/14 00:58:54;;;;;;;;;;;;;;;;;;1043465;28;19924;-73
2022/09/14 00:59:25;;;;;;;;;;;;;;;;;;1043395;28;20011;-73
2022/09/14 00:59:55;;;;;;;;;;;;;;;;;;1040380;28;19968;-73
2022/09/14 01:00:25;;;;;;;;;;;;;;;;;;1043684;28;20411;-73
2022/09/14 01:00:57;;;;;;;;;;;;;;;;;;1044617;28;19917;-73
2022/09/14 01:01:27;;;;;;;;;;;;;;;;;;1044525;28;19917;-73
2022/09/14 01:01:58;;;;;;;;;;;;;;;;;;1044877;28;19917;-73
2022/09/14 01:02:28;;;;;;;;;;;;;;;;;;1044003;28;20269;-73
2022/09/14 01:02:59;;;;;;;;;;;;;;;;;;1043901;28;19916;-73
2022/09/14 01:03:29;;;;;;;;;;;;;;;;;;1044966;28;19913;-72
2022/09/14 01:04:00;;;;;;;;;;;;;;;;;;1044894;28;20012;-72
2022/09/14 01:04:30;;;;;;;;;;;;;;;;;;1048677;28;19913;-73
2022/09/14 01:05:00;;;;;;;;;;;;;;;;;;1049004;28;19951;-73
2022/09/14 01:05:31;;;;;;;;;;;;;;;;;;1048758;28;20015;-73
2022/09/14 01:06:02;;;;;;;;;;;;;;;;;;1048113;28;19962;-73
2022/09/14 01:06:34;;;;;;;;;;;;;;;;;;1044651;28;19982;-73
2022/09/14 01:07:04;;;;;;;;;;;;;;;;;;1044809;28;19956;-73
2022/09/14 01:07:34;;;;;;;;;;;;;;;;;;1044830;28;19921;-73
2022/09/14 01:08:05;;;;;;;;;;;;;;;;;;1044775;28;20296;-73
2022/09/14 01:08:35;;;;;;;;;;;;;;;;;;1044778;28;19917;-73
2022/09/14 01:09:05;;;;;;;;;;;;;;;;;;1048648;28;20366;-73
2022/09/14 01:09:36;;;;;;;;;;;;;;;;;;1048456;28;19921;-73
2022/09/14 01:10:06;;;;;;;;;;;;;;;;;;1048573;28;19920;-73
2022/09/14 01:10:37;;;;;;;;;;;;;;;;;;1048380;28;19913;-73
2022/09/14 01:11:07;;;;;;;;;;;;;;;;;;1044641;28;19980;-73
2022/09/14 01:11:37;;;;;;;;;;;;;;;;;;1043576;28;19935;-73
2022/09/14 01:12:09;;;;;;;;;;;;;;;;;;1044329;28;19913;-73
2022/09/14 01:12:40;;;;;;;;;;;;;;;;;;1044857;28;19913;-73
2022/09/14 01:13:10;;;;;;;;;;;;;;;;;;1047723;28;19952;-73
2022/09/14 01:13:40;;;;;;;;;;;;;;;;;;1048278;28;19916;-73
2022/09/14 01:14:10;;;;;;;;;;;;;;;;;;1048099;28;19916;-73
2022/09/14 01:14:41;;;;;;;;;;;;;;;;;;1048287;28;19920;-73
2022/09/14 01:15:11;;;;;;;;;;;;;;;;;;1043202;28;21456;-73
2022/09/14 01:15:42;;;;;;;;;;;;;;;;;;1044315;28;20520;-73
2022/09/14 01:16:13;;;;;;;;;;;;;;;;;;1044202;28;19978;-73
2022/09/14 01:16:43;;;;;;;;;;;;;;;;;;1044082;28;20274;-73
2022/09/14 01:17:13;;;;;;;;;;;;;;;;;;1043836;28;20058;-73
2022/09/14 01:17:44;;;;;;;;;;;;;;;;;;1044187;28;19913;-73
2022/09/14 01:18:15;;;;;;;;;;;;;;;;;;1043327;28;19999;-73
2022/09/14 01:18:45;;;;;;;;;;;;;;;;;;1044153;28;19999;-73
2022/09/14 01:19:15;;;;;;;;;;;;;;;;;;1043446;28;19919;-73
2022/09/14 01:19:46;;;;;;;;;;;;;;;;;;1040476;28;19917;-73
2022/09/14 01:20:16;;;;;;;;;;;;;;;;;;1040541;28;19955;-73
2022/09/14 01:20:47;;;;;;;;;;;;;;;;;;1043930;28;19920;-74
2022/09/14 01:21:17;;;;;;;;;;;;;;;;;;1043209;28;19912;-73
2022/09/14 01:21:48;;;;;;;;;;;;;;;;;;1043853;28;20288;-73
2022/09/14 01:22:18;;;;;;;;;;;;;;;;;;1039985;28;19955;-73
2022/09/14 01:22:49;;;;;;;;;;;;;;;;;;1043983;28;19959;-73
2022/09/14 01:23:19;;;;;;;;;;;;;;;;;;1043706;28;19920;-73
2022/09/14 01:23:49;;;;;;;;;;;;;;;;;;1044674;28;19924;-74
2022/09/14 01:24:20;;;;;;;;;;;;;;;;;;1043432;28;19920;-74
2022/09/14 01:24:50;;;;;;;;;;;;;;;;;;1046826;28;20628;-74
2022/09/14 01:25:20;;;;;;;;;;;;;;;;;;1047124;28;19917;-73
2022/09/14 01:25:51;;;;;;;;;;;;;;;;;;1048314;28;19916;-73
2022/09/14 01:26:21;;;;;;;;;;;;;;;;;;1047082;28;19925;-73
2022/09/14 01:26:52;;;;;;;;;;;;;;;;;;1042619;28;20395;-73
2022/09/14 01:27:22;;;;;;;;;;;;;;;;;;1042617;28;19940;-74
2022/09/14 01:27:52;;;;;;;;;;;;;;;;;;1043545;28;19919;-74
2022/09/14 01:28:23;;;;;;;;;;;;;;;;;;1045891;28;19956;-74
2022/09/14 01:28:53;;;;;;;;;;;;;;;;;;1048363;28;19912;-73
2022/09/14 01:29:24;;;;;;;;;;;;;;;;;;1046822;28;19916;-73
2022/09/14 01:29:54;;;;;;;;;;;;;;;;;;1047472;28;20018;-73
2022/09/14 01:30:27;;;;;;;;;;;;;;;;;;1044127;28;20522;-73
2022/09/14 01:30:58;;;;;;;;;;;;;;;;;;1042776;28;20008;-74
2022/09/14 01:31:28;;;;;;;;;;;;;;;;;;1043853;28;20091;-72
2022/09/14 01:31:59;;;;;;;;;;;;;;;;;;1047257;28;19942;-73
2022/09/14 01:32:30;;;;;;;;;;;;;;;;;;1043259;28;19913;-74
2022/09/14 01:33:01;;;;;;;;;;;;;;;;;;1042130;28;20302;-74
2022/09/14 01:33:32;;;;;;;;;;;;;;;;;;1043363;28;19913;-74
2022/09/14 01:34:04;;;;;;;;;;;;;;;;;;1039251;28;20367;-74
2022/09/14 01:34:35;;;;;;;;;;;;;;;;;;1038062;28;20408;-74
2022/09/14 01:35:06;;;;;;;;;;;;;;;;;;1034833;28;19925;-74
2022/09/14 01:35:37;;;;;;;;;;;;;;;;;;1034657;28;20060;-74
2022/09/14 01:36:10;;;;;;;;;;;;;;;;;;1038663;28;20475;-74
2022/09/14 01:36:40;;;;;;;;;;;;;;;;;;1043426;28;19940;-74
2022/09/14 01:37:11;;;;;;;;;;;;;;;;;;1039395;28;20016;-74
2022/09/14 01:37:42;;;;;;;;;;;;;;;;;;1039612;28;20027;-74
2022/09/14 01:38:12;;;;;;;;;;;;;;;;;;1035326;28;19913;-74
2022/09/14 01:38:43;;;;;;;;;;;;;;;;;;1035645;28;19913;-73
2022/09/14 01:39:13;;;;;;;;;;;;;;;;;;1037683;28;19917;-74
2022/09/14 01:39:43;;;;;;;;;;;;;;;;;;1038055;28;19913;-73
2022/09/14 01:40:14;;;;;;;;;;;;;;;;;;1040642;28;20078;-73
2022/09/14 01:40:44;;;;;;;;;;;;;;;;;;1041893;28;19917;-73
2022/09/14 01:41:15;;;;;;;;;;;;;;;;;;1042074;28;19947;-73
2022/09/14 01:41:45;;;;;;;;;;;;;;;;;;1045494;28;19917;-73
2022/09/14 01:42:16;;;;;;;;;;;;;;;;;;1044847;28;19913;-73
2022/09/14 01:42:47;;;;;;;;;;;;;;;;;;1047186;28;20285;-74
2022/09/14 01:43:17;;;;;;;;;;;;;;;;;;1046592;28;19966;-74
2022/09/14 01:43:47;;;;;;;;;;;;;;;;;;1048093;28;20008;-74
2022/09/14 01:44:18;;;;;;;;;;;;;;;;;;1043083;28;20320;-74
2022/09/14 01:44:49;;;;;;;;;;;;;;;;;;1040043;28;19913;-74
2022/09/14 01:45:20;;;;;;;;;;;;;;;;;;1043734;28;20396;-73
2022/09/14 01:45:50;;;;;;;;;;;;;;;;;;1043797;28;20001;-74
2022/09/14 01:46:20;;;;;;;;;;;;;;;;;;1043717;28;19928;-74
2022/09/14 01:46:51;;;;;;;;;;;;;;;;;;1044336;28;19917;-73
2022/09/14 01:47:22;;;;;;;;;;;;;;;;;;1043719;28;19917;-73
2022/09/14 01:47:52;;;;;;;;;;;;;;;;;;1047859;28;19943;-74
2022/09/14 01:48:23;;;;;;;;;;;;;;;;;;1046262;28;19975;-74
2022/09/14 01:48:53;;;;;;;;;;;;;;;;;;1047170;28;19966;-74
2022/09/14 01:49:24;;;;;;;;;;;;;;;;;;1045661;28;19917;-74
2022/09/14 01:49:54;;;;;;;;;;;;;;;;;;1038768;28;19940;-74
2022/09/14 01:50:24;;;;;;;;;;;;;;;;;;1039362;28;20286;-73
2022/09/14 01:50:55;;;;;;;;;;;;;;;;;;1040022;28;19999;-73
2022/09/14 01:51:25;;;;;;;;;;;;;;;;;;1034760;28;20012;-73
2022/09/14 01:51:56;;;;;;;;;;;;;;;;;;1039219;28;19917;-73
2022/09/14 01:52:26;;;;;;;;;;;;;;;;;;1043501;28;19987;-74
2022/09/14 01:52:56;;;;;;;;;;;;;;;;;;1043893;28;20002;-74
2022/09/14 01:53:27;;;;;;;;;;;;;;;;;;1042796;28;19928;-74
2022/09/14 01:53:57;;;;;;;;;;;;;;;;;;1043589;28;20374;-73
2022/09/14 01:54:27;;;;;;;;;;;;;;;;;;1042675;28;20363;-74
2022/09/14 01:54:58;;;;;;;;;;;;;;;;;;1044165;28;19916;-74
2022/09/14 01:55:28;;;;;;;;;;;;;;;;;;1045914;28;20015;-74
2022/09/14 01:55:58;;;;;;;;;;;;;;;;;;1048264;28;19912;-74
2022/09/14 01:56:31;;;;;;;;;;;;;;;;;;1047651;28;20268;-76
2022/09/14 01:57:01;;;;;;;;;;;;;;;;;;1047220;28;19972;-74
2022/09/14 01:57:31;;;;;;;;;;;;;;;;;;1040780;28;19913;-74
2022/09/14 01:58:01;;;;;;;;;;;;;;;;;;1039601;28;19913;-74
2022/09/14 01:58:35;;;;;;;;;;;;;;;;;;1035620;28;19910;-74
2022/09/14 01:59:05;;;;;;;;;;;;;;;;;;1035380;28;19913;-74
2022/09/14 01:59:36;;;;;;;;;;;;;;;;;;1035116;28;19968;-74
2022/09/14 02:00:06;;;;;;;;;;;;;;;;;;1030961;28;19998;-74
2022/09/14 02:00:37;;;;;;;;;;;;;;;;;;1035519;28;19917;-74
2022/09/14 02:01:08;;;;;;;;;;;;;;;;;;1038345;28;19999;-74
2022/09/14 02:01:39;;;;;;;;;;;;;;;;;;1035242;28;19971;-74
2022/09/14 02:02:10;;;;;;;;;;;;;;;;;;1039657;28;19947;-74
2022/09/14 02:02:42;;;;;;;;;;;;;;;;;;1040043;28;19923;-74
2022/09/14 02:03:13;;;;;;;;;;;;;;;;;;1038424;28;19985;-74
2022/09/14 02:03:44;;;;;;;;;;;;;;;;;;1037818;28;20067;-74
2022/09/14 02:04:14;;;;;;;;;;;;;;;;;;1039942;28;19913;-74
2022/09/14 02:04:44;;;;;;;;;;;;;;;;;;1041119;28;19921;-75
2022/09/14 02:05:15;;;;;;;;;;;;;;;;;;1039820;28;20449;-74
2022/09/14 02:05:46;;;;;;;;;;;;;;;;;;1037531;28;19963;-73
2022/09/14 02:06:16;;;;;;;;;;;;;;;;;;1034663;28;19988;-74
2022/09/14 02:06:47;;;;;;;;;;;;;;;;;;1048092;28;20394;-74
2022/09/14 02:07:18;;;;;;;;;;;;;;;;;;1044199;28;20443;-74
2022/09/14 02:07:49;;;;;;;;;;;;;;;;;;1043630;28;19913;-74
2022/09/14 02:08:19;;;;;;;;;;;;;;;;;;1043152;28;20024;-74
2022/09/14 02:08:50;;;;;;;;;;;;;;;;;;1043617;28;19913;-74
2022/09/14 02:09:21;;;;;;;;;;;;;;;;;;1047329;28;20019;-74
2022/09/14 02:09:51;;;;;;;;;;;;;;;;;;1046693;28;19916;-74
2022/09/14 02:10:23;;;;;;;;;;;;;;;;;;1047601;28;19917;-73
2022/09/14 02:10:53;;;;;;;;;;;;;;;;;;1047044;28;19966;-73
2022/09/14 02:11:23;;;;;;;;;;;;;;;;;;1050966;28;19962;-73
2022/09/14 02:11:54;;;;;;;;;;;;;;;;;;1051206;28;19935;-73
2022/09/14 02:12:24;;;;;;;;;;;;;;;;;;1049858;28;19916;-73
2022/09/14 02:12:55;;;;;;;;;;;;;;;;;;1049258;28;20462;-73
2022/09/14 02:13:25;;;;;;;;;;;;;;;;;;1047921;28;19920;-73
2022/09/14 02:13:56;;;;;;;;;;;;;;;;;;1050530;28;19915;-73
2022/09/14 02:14:27;;;;;;;;;;;;;;;;;;1050208;28;20358;-74
2022/09/14 02:15:00;;;;;;;;;;;;;;;;;;1050849;28;19912;-73
2022/09/14 02:15:31;;;;;;;;;;;;;;;;;;1042520;28;19971;-76
2022/09/14 02:16:05;;;;;;;;;;;;;;;;;;1040397;28;19924;-76
2022/09/14 02:16:36;;;;;;;;;;;;;;;;;;1043665;28;19893;-74
2022/09/14 02:17:09;;;;;;;;;;;;;;;;;;1042670;28;19956;-74
2022/09/14 02:17:39;;;;;;;;;;;;;;;;;;1041794;28;20008;-75
2022/09/14 02:18:10;;;;;;;;;;;;;;;;;;1042915;28;19917;-74
2022/09/14 02:18:42;;;;;;;;;;;;;;;;;;1043458;28;20392;-73
2022/09/14 02:19:13;;;;;;;;;;;;;;;;;;1042111;28;20446;-73
2022/09/14 02:19:43;;;;;;;;;;;;;;;;;;1039737;28;19924;-74
2022/09/14 02:20:14;;;;;;;;;;;;;;;;;;1038995;28;20007;-73
2022/09/14 02:20:45;;;;;;;;;;;;;;;;;;1040994;28;19913;-74
2022/09/14 02:21:15;;;;;;;;;;;;;;;;;;1043334;28;19920;-74
2022/09/14 02:21:49;;;;;;;;;;;;;;;;;;1042402;28;19921;-74
2022/09/14 02:22:19;;;;;;;;;;;;;;;;;;1041133;28;20481;-73
2022/09/14 02:22:50;;;;;;;;;;;;;;;;;;1043243;28;19916;-73
2022/09/14 02:23:21;;;;;;;;;;;;;;;;;;1041650;28;20099;-75
2022/09/14 02:23:53;;;;;;;;;;;;;;;;;;1039038;28;20718;-74
2022/09/14 02:24:24;;;;;;;;;;;;;;;;;;1035872;28;19988;-74
2022/09/14 02:24:55;;;;;;;;;;;;;;;;;;1035528;28;20316;-74
2022/09/14 02:25:28;;;;;;;;;;;;;;;;;;1037008;28;20015;-74
2022/09/14 02:26:00;;;;;;;;;;;;;;;;;;1043020;28;19913;-74
2022/09/14 02:26:31;;;;;;;;;;;;;;;;;;1043524;28;20032;-73
2022/09/14 02:27:01;;;;;;;;;;;;;;;;;;1043474;28;20385;-74
2022/09/14 02:27:32;;;;;;;;;;;;;;;;;;1043258;28;19916;-74
2022/09/14 02:28:03;;;;;;;;;;;;;;;;;;1042125;28;19958;-74
2022/09/14 02:28:34;;;;;;;;;;;;;;;;;;1039967;28;19960;-75
2022/09/14 02:29:04;;;;;;;;;;;;;;;;;;1046073;28;19912;-73
2022/09/14 02:29:35;;;;;;;;;;;;;;;;;;1044849;28;19916;-73
2022/09/14 02:30:06;;;;;;;;;;;;;;;;;;1045092;28;20109;-74
2022/09/14 02:30:38;;;;;;;;;;;;;;;;;;1042714;28;19917;-73
2022/09/14 02:31:11;;;;;;;;;;;;;;;;;;1041151;28;19913;-73
2022/09/14 02:31:41;;;;;;;;;;;;;;;;;;1042286;28;19924;-74
2022/09/14 02:32:13;;;;;;;;;;;;;;;;;;1046188;28;19923;-73
2022/09/14 02:32:43;;;;;;;;;;;;;;;;;;1047916;28;19913;-74
2022/09/14 02:33:13;;;;;;;;;;;;;;;;;;1048959;28;19916;-73
2022/09/14 02:33:53;;;;;;;;;;;;;;;;;;1050152;28;20016;-73
2022/09/14 02:34:24;;;;;;;;;;;;;;;;;;1049566;28;19993;-73
2022/09/14 02:34:55;;;;;;;;;;;;;;;;;;1049636;28;20379;-73
2022/09/14 02:35:31;;;;;;;;;;;;;;;;;;1041593;28;19971;-73
2022/09/14 02:36:01;;;;;;;;;;;;;;;;;;1038358;28;19913;-73
2022/09/14 02:36:32;;;;;;;;;;;;;;;;;;1039077;28;19924;-73
2022/09/14 02:37:02;;;;;;;;;;;;;;;;;;1043046;28;20358;-73
2022/09/14 02:37:33;;;;;;;;;;;;;;;;;;1045236;28;20692;-73
2022/09/14 02:38:04;;;;;;;;;;;;;;;;;;1045876;28;19916;-73
2022/09/14 02:38:34;;;;;;;;;;;;;;;;;;1045467;28;20066;-73
2022/09/14 02:39:07;;;;;;;;;;;;;;;;;;1046141;28;19912;-74
2022/09/14 02:39:37;;;;;;;;;;;;;;;;;;1048578;28;19912;-73
2022/09/14 02:40:08;;;;;;;;;;;;;;;;;;1045213;28;19962;-73
2022/09/14 02:40:39;;;;;;;;;;;;;;;;;;1051217;28;20016;-74
2022/09/14 02:41:10;;;;;;;;;;;;;;;;;;1049472;28;20069;-74
2022/09/14 02:41:49;;;;;;;;;;;;;;;;;;1050995;28;20337;-73
2022/09/14 02:42:19;;;;;;;;;;;;;;;;;;1048778;28;21265;-74
2022/09/14 02:42:50;;;;;;;;;;;;;;;;;;1042799;28;19956;-74
2022/09/14 02:43:20;;;;;;;;;;;;;;;;;;1041977;28;20053;-74
2022/09/14 02:43:50;;;;;;;;;;;;;;;;;;1038936;28;19917;-74
2022/09/14 02:44:21;;;;;;;;;;;;;;;;;;1039502;28;19923;-74
2022/09/14 02:44:51;;;;;;;;;;;;;;;;;;1037566;28;19928;-74
2022/09/14 02:45:24;;;;;;;;;;;;;;;;;;1041300;28;20046;-74
2022/09/14 02:45:54;;;;;;;;;;;;;;;;;;1037999;28;19920;-74
2022/09/14 02:46:25;;;;;;;;;;;;;;;;;;1038283;28;20011;-73
2022/09/14 02:46:55;;;;;;;;;;;;;;;;;;1042601;28;19963;-74
2022/09/14 02:47:26;;;;;;;;;;;;;;;;;;1046921;28;19926;-74
2022/09/14 02:47:56;;;;;;;;;;;;;;;;;;1046188;28;19925;-74
2022/09/14 02:48:26;;;;;;;;;;;;;;;;;;1048612;28;20041;-74
2022/09/14 02:48:57;;;;;;;;;;;;;;;;;;1048885;28;19983;-74
2022/09/14 02:49:28;;;;;;;;;;;;;;;;;;1046172;28;20015;-74
2022/09/14 02:49:58;;;;;;;;;;;;;;;;;;1045274;28;20420;-74
2022/09/14 02:50:29;;;;;;;;;;;;;;;;;;1041788;28;19938;-74
2022/09/14 02:51:05;;;;;;;;;;;;;;;;;;1042632;28;20420;-76
2022/09/14 02:51:37;;;;;;;;;;;;;;;;;;1046905;28;20336;-76
2022/09/14 02:52:07;;;;;;;;;;;;;;;;;;1043880;28;19920;-73
2022/09/14 02:52:38;;;;;;;;;;;;;;;;;;1042958;28;19913;-74
2022/09/14 02:53:08;;;;;;;;;;;;;;;;;;1043033;28;19916;-73
2022/09/14 02:53:39;;;;;;;;;;;;;;;;;;1043008;28;19924;-75
2022/09/14 02:54:09;;;;;;;;;;;;;;;;;;1043009;28;20533;-74
2022/09/14 02:54:40;;;;;;;;;;;;;;;;;;1043446;28;20264;-75
2022/09/14 02:55:11;;;;;;;;;;;;;;;;;;1039253;28;20003;-75
2022/09/14 02:55:42;;;;;;;;;;;;;;;;;;1040011;28;19917;-75
2022/09/14 02:56:12;;;;;;;;;;;;;;;;;;1034842;28;19912;-74
2022/09/14 02:56:43;;;;;;;;;;;;;;;;;;1036398;28;19913;-74
2022/09/14 02:57:14;;;;;;;;;;;;;;;;;;1035435;28;19960;-74
2022/09/14 02:57:44;;;;;;;;;;;;;;;;;;1035308;28;20280;-74
2022/09/14 02:58:17;;;;;;;;;;;;;;;;;;1039225;28;19921;-75
2022/09/14 02:58:48;;;;;;;;;;;;;;;;;;1038941;28;19916;-74
2022/09/14 02:59:18;;;;;;;;;;;;;;;;;;1042076;28;19916;-73
2022/09/14 02:59:48;;;;;;;;;;;;;;;;;;1042385;28;19917;-73
2022/09/14 03:00:19;;;;;;;;;;;;;;;;;;1042581;28;19920;-74
2022/09/14 03:00:50;;;;;;;;;;;;;;;;;;1038888;28;20000;-75
2022/09/14 03:01:23;;;;;;;;;;;;;;;;;;1040005;28;19917;-75
2022/09/14 03:01:54;;;;;;;;;;;;;;;;;;1035038;28;19920;-75
2022/09/14 03:02:25;;;;;;;;;;;;;;;;;;1034330;28;19917;-75
2022/09/14 03:02:55;;;;;;;;;;;;;;;;;;1040280;28;20399;-75
2022/09/14 03:03:25;;;;;;;;;;;;;;;;;;1042046;28;19921;-74
2022/09/14 03:03:56;;;;;;;;;;;;;;;;;;1043048;28;19920;-74
2022/09/14 03:04:26;;;;;;;;;;;;;;;;;;1043162;28;20363;-75
2022/09/14 03:04:57;;;;;;;;;;;;;;;;;;1041648;28;20133;-74
2022/09/14 03:05:27;;;;;;;;;;;;;;;;;;1039364;28;19917;-75
2022/09/14 03:05:57;;;;;;;;;;;;;;;;;;1039746;28;19924;-74
2022/09/14 03:06:28;;;;;;;;;;;;;;;;;;1035202;28;19921;-75
2022/09/14 03:07:01;;;;;;;;;;;;;;;;;;1039471;28;20171;-75
2022/09/14 03:07:31;;;;;;;;;;;;;;;;;;1044536;28;19920;-74
2022/09/14 03:08:02;;;;;;;;;;;;;;;;;;1042726;28;20466;-74
2022/09/14 03:08:33;;;;;;;;;;;;;;;;;;1043556;28;19916;-75
2022/09/14 03:09:03;;;;;;;;;;;;;;;;;;1046224;28;19916;-75
2022/09/14 03:09:33;;;;;;;;;;;;;;;;;;1046836;28;19964;-74
2022/09/14 03:10:10;;;;;;;;;;;;;;;;;;1045988;28;20568;-75
2022/09/14 03:10:40;;;;;;;;;;;;;;;;;;1044640;28;20688;-75
2022/09/14 03:11:10;;;;;;;;;;;;;;;;;;1042504;28;20015;-75
2022/09/14 03:11:41;;;;;;;;;;;;;;;;;;1037338;28;19970;-75
2022/09/14 03:12:11;;;;;;;;;;;;;;;;;;1037484;28;19916;-75
2022/09/14 03:12:41;;;;;;;;;;;;;;;;;;1035997;28;20606;-76
2022/09/14 03:13:12;;;;;;;;;;;;;;;;;;1038125;28;20019;-75
2022/09/14 03:13:43;;;;;;;;;;;;;;;;;;1042177;28;20015;-75
2022/09/14 03:14:13;;;;;;;;;;;;;;;;;;1042189;28;20019;-75
2022/09/14 03:14:44;;;;;;;;;;;;;;;;;;1039867;28;20281;-76
2022/09/14 03:15:14;;;;;;;;;;;;;;;;;;1037382;28;19923;-75
2022/09/14 03:15:44;;;;;;;;;;;;;;;;;;1040283;28;20419;-75
2022/09/14 03:16:15;;;;;;;;;;;;;;;;;;1042942;28;19912;-75
2022/09/14 03:16:45;;;;;;;;;;;;;;;;;;1047015;28;19920;-74
2022/09/14 03:17:15;;;;;;;;;;;;;;;;;;1043533;28;19940;-76
2022/09/14 03:17:46;;;;;;;;;;;;;;;;;;1045542;28;19916;-74
2022/09/14 03:18:16;;;;;;;;;;;;;;;;;;1042300;28;19916;-73
2022/09/14 03:18:47;;;;;;;;;;;;;;;;;;1046387;28;20377;-74
2022/09/14 03:19:17;;;;;;;;;;;;;;;;;;1044522;28;20397;-74
2022/09/14 03:19:47;;;;;;;;;;;;;;;;;;1042427;28;20337;-74
2022/09/14 03:20:18;;;;;;;;;;;;;;;;;;1041790;28;19964;-74
2022/09/14 03:20:48;;;;;;;;;;;;;;;;;;1043810;28;19912;-75
2022/09/14 03:21:18;;;;;;;;;;;;;;;;;;1043006;28;20040;-74
2022/09/14 03:21:49;;;;;;;;;;;;;;;;;;1035774;28;20139;-74
2022/09/14 03:22:19;;;;;;;;;;;;;;;;;;1040220;28;20545;-74
2022/09/14 03:22:49;;;;;;;;;;;;;;;;;;1038562;28;19921;-74
2022/09/14 03:23:20;;;;;;;;;;;;;;;;;;1044611;28;19993;-73
2022/09/14 03:23:50;;;;;;;;;;;;;;;;;;1045037;28;20023;-75
2022/09/14 03:24:23;;;;;;;;;;;;;;;;;;1040470;28;20339;-75
2022/09/14 03:24:53;;;;;;;;;;;;;;;;;;1043277;28;19912;-75
2022/09/14 03:25:24;;;;;;;;;;;;;;;;;;1044707;28;19936;-76
2022/09/14 03:25:54;;;;;;;;;;;;;;;;;;1049376;28;19916;-76
2022/09/14 03:26:25;;;;;;;;;;;;;;;;;;1040691;28;20447;-76
2022/09/14 03:26:55;;;;;;;;;;;;;;;;;;1039235;28;20474;-76
2022/09/14 03:27:25;;;;;;;;;;;;;;;;;;1040315;28;19972;-76
2022/09/14 03:27:56;;;;;;;;;;;;;;;;;;1040376;28;19924;-76
2022/09/14 03:28:26;;;;;;;;;;;;;;;;;;1039696;28;20358;-76
2022/09/14 03:28:56;;;;;;;;;;;;;;;;;;1043240;28;19927;-76
2022/09/14 03:29:27;;;;;;;;;;;;;;;;;;1043357;28;20341;-75